sensor_id;sensor_type;location;lat;lon;timestamp;P1;durP1;ratioP1;P2;durP2;ratioP2
25615;SDS011;13482;48.234;13.006;2024-01-11T00:02:17;27.20;;;12.85;;
25615;SDS011;13482;48.234;13.006;2024-01-11T00:04:44;25.85;;;12.18;;
25615;SDS011;13482;48.234;13.006;2024-01-11T00:07:12;25.52;;;13.27;;
25615;SDS011;13482;48.234;13.006;2024-01-11T00:09:40;28.27;;;11.30;;
25615;SDS011;13482;48.234;13.006;2024-01-11T00:12:09;26.33;;;12.57;;
25615;SDS011;13482;48.234;13.006;2024-01-11T00:14:37;25.63;;;12.40;;
25615;SDS011;13482;48.234;13.006;2024-01-11T00:17:04;23.40;;;12.02;;
25615;SDS011;13482;48.234;13.006;2024-01-11T00:19:32;29.08;;;11.98;;
25615;SDS011;13482;48.234;13.006;2024-01-11T00:21:59;28.55;;;13.02;;
25615;SDS011;13482;48.234;13.006;2024-01-11T00:24:26;29.20;;;13.85;;
25615;SDS011;13482;48.234;13.006;2024-01-11T00:26:54;26.13;;;12.95;;
25615;SDS011;13482;48.234;13.006;2024-01-11T00:29:21;25.70;;;11.90;;
25615;SDS011;13482;48.234;13.006;2024-01-11T00:31:49;26.10;;;12.27;;
25615;SDS011;13482;48.234;13.006;2024-01-11T00:34:16;28.10;;;13.05;;
25615;SDS011;13482;48.234;13.006;2024-01-11T00:36:44;27.70;;;12.93;;
25615;SDS011;13482;48.234;13.006;2024-01-11T00:39:11;31.42;;;13.55;;
25615;SDS011;13482;48.234;13.006;2024-01-11T00:41:39;26.80;;;13.35;;
25615;SDS011;13482;48.234;13.006;2024-01-11T00:44:07;27.10;;;13.30;;
25615;SDS011;13482;48.234;13.006;2024-01-11T00:46:34;29.73;;;14.48;;
25615;SDS011;13482;48.234;13.006;2024-01-11T00:49:02;26.65;;;13.50;;
25615;SDS011;13482;48.234;13.006;2024-01-11T00:51:29;27.25;;;12.85;;
25615;SDS011;13482;48.234;13.006;2024-01-11T00:53:57;25.98;;;12.43;;
25615;SDS011;13482;48.234;13.006;2024-01-11T00:56:24;29.80;;;13.05;;
25615;SDS011;13482;48.234;13.006;2024-01-11T00:58:52;30.23;;;12.43;;
25615;SDS011;13482;48.234;13.006;2024-01-11T01:01:20;24.73;;;12.30;;
25615;SDS011;13482;48.234;13.006;2024-01-11T01:03:48;24.15;;;12.40;;
25615;SDS011;13482;48.234;13.006;2024-01-11T01:06:15;24.80;;;12.15;;
25615;SDS011;13482;48.234;13.006;2024-01-11T01:08:43;27.38;;;12.80;;
25615;SDS011;13482;48.234;13.006;2024-01-11T01:11:10;24.00;;;12.52;;
25615;SDS011;13482;48.234;13.006;2024-01-11T01:13:37;24.48;;;12.38;;
25615;SDS011;13482;48.234;13.006;2024-01-11T01:16:05;25.02;;;12.27;;
25615;SDS011;13482;48.234;13.006;2024-01-11T01:18:32;26.38;;;12.45;;
25615;SDS011;13482;48.234;13.006;2024-01-11T01:21:00;25.02;;;12.70;;
25615;SDS011;13482;48.234;13.006;2024-01-11T01:23:27;27.73;;;12.65;;
25615;SDS011;13482;48.234;13.006;2024-01-11T01:25:55;24.35;;;13.27;;
25615;SDS011;13482;48.234;13.006;2024-01-11T01:28:22;27.05;;;12.73;;
25615;SDS011;13482;48.234;13.006;2024-01-11T01:30:50;25.13;;;11.60;;
25615;SDS011;13482;48.234;13.006;2024-01-11T01:33:17;26.33;;;13.20;;
25615;SDS011;13482;48.234;13.006;2024-01-11T01:35:47;25.10;;;12.52;;
25615;SDS011;13482;48.234;13.006;2024-01-11T01:38:14;23.85;;;12.25;;
25615;SDS011;13482;48.234;13.006;2024-01-11T01:40:44;27.40;;;12.90;;
25615;SDS011;13482;48.234;13.006;2024-01-11T01:43:11;25.10;;;12.40;;
25615;SDS011;13482;48.234;13.006;2024-01-11T01:45:39;23.17;;;12.27;;
25615;SDS011;13482;48.234;13.006;2024-01-11T01:48:07;24.02;;;11.88;;
25615;SDS011;13482;48.234;13.006;2024-01-11T01:50:35;25.23;;;12.25;;
25615;SDS011;13482;48.234;13.006;2024-01-11T01:53:02;26.38;;;13.18;;
25615;SDS011;13482;48.234;13.006;2024-01-11T01:55:30;25.38;;;12.60;;
25615;SDS011;13482;48.234;13.006;2024-01-11T01:57:58;25.55;;;12.70;;
25615;SDS011;13482;48.234;13.006;2024-01-11T02:00:27;23.55;;;12.27;;
25615;SDS011;13482;48.234;13.006;2024-01-11T02:02:54;23.75;;;12.80;;
25615;SDS011;13482;48.234;13.006;2024-01-11T02:05:23;25.20;;;12.52;;
25615;SDS011;13482;48.234;13.006;2024-01-11T02:07:51;23.55;;;12.77;;
25615;SDS011;13482;48.234;13.006;2024-01-11T02:10:19;24.67;;;12.13;;
25615;SDS011;13482;48.234;13.006;2024-01-11T02:12:47;31.10;;;14.02;;
25615;SDS011;13482;48.234;13.006;2024-01-11T02:15:15;23.77;;;12.35;;
25615;SDS011;13482;48.234;13.006;2024-01-11T02:17:42;26.90;;;12.63;;
25615;SDS011;13482;48.234;13.006;2024-01-11T02:20:10;25.65;;;12.63;;
25615;SDS011;13482;48.234;13.006;2024-01-11T02:22:38;24.23;;;12.57;;
25615;SDS011;13482;48.234;13.006;2024-01-11T02:25:11;29.60;;;12.95;;
25615;SDS011;13482;48.234;13.006;2024-01-11T02:27:46;29.85;;;13.82;;
25615;SDS011;13482;48.234;13.006;2024-01-11T02:30:15;24.15;;;11.80;;
25615;SDS011;13482;48.234;13.006;2024-01-11T02:32:43;21.60;;;11.18;;
25615;SDS011;13482;48.234;13.006;2024-01-11T02:35:14;24.80;;;12.27;;
25615;SDS011;13482;48.234;13.006;2024-01-11T02:37:43;21.55;;;11.40;;
25615;SDS011;13482;48.234;13.006;2024-01-11T02:40:12;23.80;;;11.43;;
25615;SDS011;13482;48.234;13.006;2024-01-11T02:42:41;33.63;;;12.25;;
25615;SDS011;13482;48.234;13.006;2024-01-11T02:45:09;23.23;;;11.00;;
25615;SDS011;13482;48.234;13.006;2024-01-11T02:47:41;23.25;;;11.65;;
25615;SDS011;13482;48.234;13.006;2024-01-11T02:50:10;24.92;;;13.30;;
25615;SDS011;13482;48.234;13.006;2024-01-11T02:52:39;23.45;;;12.18;;
25615;SDS011;13482;48.234;13.006;2024-01-11T02:55:07;25.13;;;12.65;;
25615;SDS011;13482;48.234;13.006;2024-01-11T02:57:35;24.63;;;12.60;;
25615;SDS011;13482;48.234;13.006;2024-01-11T03:00:02;24.55;;;12.40;;
25615;SDS011;13482;48.234;13.006;2024-01-11T03:02:32;28.73;;;12.68;;
25615;SDS011;13482;48.234;13.006;2024-01-11T03:04:59;27.55;;;13.05;;
25615;SDS011;13482;48.234;13.006;2024-01-11T03:07:27;20.67;;;11.65;;
25615;SDS011;13482;48.234;13.006;2024-01-11T03:09:55;27.50;;;13.25;;
25615;SDS011;13482;48.234;13.006;2024-01-11T03:12:22;30.92;;;13.25;;
25615;SDS011;13482;48.234;13.006;2024-01-11T03:14:52;24.13;;;12.65;;
25615;SDS011;13482;48.234;13.006;2024-01-11T03:17:20;23.25;;;12.48;;
25615;SDS011;13482;48.234;13.006;2024-01-11T03:19:48;24.63;;;12.90;;
25615;SDS011;13482;48.234;13.006;2024-01-11T03:22:15;24.77;;;12.60;;
25615;SDS011;13482;48.234;13.006;2024-01-11T03:24:43;25.10;;;12.70;;
25615;SDS011;13482;48.234;13.006;2024-01-11T03:27:10;25.70;;;12.93;;
25615;SDS011;13482;48.234;13.006;2024-01-11T03:29:37;24.25;;;12.68;;
25615;SDS011;13482;48.234;13.006;2024-01-11T03:32:05;25.38;;;12.50;;
25615;SDS011;13482;48.234;13.006;2024-01-11T03:34:33;22.45;;;12.30;;
25615;SDS011;13482;48.234;13.006;2024-01-11T03:37:00;28.15;;;12.52;;
25615;SDS011;13482;48.234;13.006;2024-01-11T03:39:28;22.88;;;11.88;;
25615;SDS011;13482;48.234;13.006;2024-01-11T03:41:55;23.88;;;12.00;;
25615;SDS011;13482;48.234;13.006;2024-01-11T03:44:23;22.52;;;11.77;;
25615;SDS011;13482;48.234;13.006;2024-01-11T03:46:50;22.23;;;10.95;;
25615;SDS011;13482;48.234;13.006;2024-01-11T03:49:18;23.35;;;12.40;;
25615;SDS011;13482;48.234;13.006;2024-01-11T03:51:45;25.25;;;11.82;;
25615;SDS011;13482;48.234;13.006;2024-01-11T03:54:13;24.60;;;11.93;;
25615;SDS011;13482;48.234;13.006;2024-01-11T03:56:40;26.00;;;12.98;;
25615;SDS011;13482;48.234;13.006;2024-01-11T03:59:08;25.30;;;12.05;;
25615;SDS011;13482;48.234;13.006;2024-01-11T04:01:40;25.20;;;12.02;;
25615;SDS011;13482;48.234;13.006;2024-01-11T04:04:08;24.13;;;12.75;;
25615;SDS011;13482;48.234;13.006;2024-01-11T04:06:37;23.25;;;12.40;;
25615;SDS011;13482;48.234;13.006;2024-01-11T04:09:05;22.40;;;11.77;;
25615;SDS011;13482;48.234;13.006;2024-01-11T04:11:33;24.67;;;12.43;;
25615;SDS011;13482;48.234;13.006;2024-01-11T04:14:01;26.23;;;12.57;;
25615;SDS011;13482;48.234;13.006;2024-01-11T04:16:28;26.90;;;12.45;;
25615;SDS011;13482;48.234;13.006;2024-01-11T04:18:56;23.13;;;11.70;;
25615;SDS011;13482;48.234;13.006;2024-01-11T04:21:27;21.95;;;11.40;;
25615;SDS011;13482;48.234;13.006;2024-01-11T04:23:55;24.20;;;11.27;;
25615;SDS011;13482;48.234;13.006;2024-01-11T04:26:24;20.73;;;10.68;;
25615;SDS011;13482;48.234;13.006;2024-01-11T04:28:52;20.08;;;10.82;;
25615;SDS011;13482;48.234;13.006;2024-01-11T04:31:24;24.23;;;12.13;;
25615;SDS011;13482;48.234;13.006;2024-01-11T04:33:51;24.83;;;12.40;;
25615;SDS011;13482;48.234;13.006;2024-01-11T04:36:19;21.98;;;11.85;;
25615;SDS011;13482;48.234;13.006;2024-01-11T04:38:46;20.88;;;10.90;;
25615;SDS011;13482;48.234;13.006;2024-01-11T04:41:14;21.30;;;11.15;;
25615;SDS011;13482;48.234;13.006;2024-01-11T04:43:43;25.92;;;12.15;;
25615;SDS011;13482;48.234;13.006;2024-01-11T04:46:18;21.05;;;11.23;;
25615;SDS011;13482;48.234;13.006;2024-01-11T04:48:47;24.15;;;12.45;;
25615;SDS011;13482;48.234;13.006;2024-01-11T04:51:16;25.77;;;12.75;;
25615;SDS011;13482;48.234;13.006;2024-01-11T04:53:45;22.40;;;11.93;;
25615;SDS011;13482;48.234;13.006;2024-01-11T04:56:13;20.08;;;10.70;;
25615;SDS011;13482;48.234;13.006;2024-01-11T04:58:44;20.88;;;10.88;;
25615;SDS011;13482;48.234;13.006;2024-01-11T05:01:12;23.17;;;11.23;;
25615;SDS011;13482;48.234;13.006;2024-01-11T05:03:45;24.42;;;12.45;;
25615;SDS011;13482;48.234;13.006;2024-01-11T05:06:15;20.42;;;11.70;;
25615;SDS011;13482;48.234;13.006;2024-01-11T05:08:47;25.10;;;13.13;;
25615;SDS011;13482;48.234;13.006;2024-01-11T05:11:22;23.67;;;12.90;;
25615;SDS011;13482;48.234;13.006;2024-01-11T05:13:51;25.60;;;12.55;;
25615;SDS011;13482;48.234;13.006;2024-01-11T05:18:51;22.58;;;12.32;;
25615;SDS011;13482;48.234;13.006;2024-01-11T05:21:23;24.48;;;13.05;;
25615;SDS011;13482;48.234;13.006;2024-01-11T05:23:52;25.00;;;12.18;;
25615;SDS011;13482;48.234;13.006;2024-01-11T05:26:20;25.27;;;13.25;;
25615;SDS011;13482;48.234;13.006;2024-01-11T05:28:48;26.70;;;13.13;;
25615;SDS011;13482;48.234;13.006;2024-01-11T05:31:15;23.90;;;12.48;;
25615;SDS011;13482;48.234;13.006;2024-01-11T05:33:44;23.83;;;12.60;;
25615;SDS011;13482;48.234;13.006;2024-01-11T05:36:14;18.00;;;8.73;;
25615;SDS011;13482;48.234;13.006;2024-01-11T05:38:42;23.38;;;12.15;;
25615;SDS011;13482;48.234;13.006;2024-01-11T05:41:09;23.02;;;11.95;;
25615;SDS011;13482;48.234;13.006;2024-01-11T05:43:37;23.27;;;11.93;;
25615;SDS011;13482;48.234;13.006;2024-01-11T05:46:06;25.13;;;12.73;;
25615;SDS011;13482;48.234;13.006;2024-01-11T05:48:34;24.70;;;12.68;;
25615;SDS011;13482;48.234;13.006;2024-01-11T05:51:02;22.67;;;11.73;;
25615;SDS011;13482;48.234;13.006;2024-01-11T05:53:30;23.45;;;12.63;;
25615;SDS011;13482;48.234;13.006;2024-01-11T05:56:06;23.73;;;12.23;;
25615;SDS011;13482;48.234;13.006;2024-01-11T05:58:36;21.98;;;12.02;;
25615;SDS011;13482;48.234;13.006;2024-01-11T06:01:05;22.25;;;12.13;;
25615;SDS011;13482;48.234;13.006;2024-01-11T06:03:32;26.40;;;13.57;;
25615;SDS011;13482;48.234;13.006;2024-01-11T06:06:02;26.08;;;13.35;;
25615;SDS011;13482;48.234;13.006;2024-01-11T06:08:31;25.35;;;13.43;;
25615;SDS011;13482;48.234;13.006;2024-01-11T06:10:59;25.73;;;13.45;;
25615;SDS011;13482;48.234;13.006;2024-01-11T06:13:27;27.50;;;12.60;;
25615;SDS011;13482;48.234;13.006;2024-01-11T06:15:54;27.70;;;13.35;;
25615;SDS011;13482;48.234;13.006;2024-01-11T06:18:22;28.65;;;13.35;;
25615;SDS011;13482;48.234;13.006;2024-01-11T06:20:50;25.98;;;13.43;;
25615;SDS011;13482;48.234;13.006;2024-01-11T06:23:17;24.83;;;13.38;;
25615;SDS011;13482;48.234;13.006;2024-01-11T06:25:46;26.60;;;14.15;;
25615;SDS011;13482;48.234;13.006;2024-01-11T06:28:14;33.75;;;14.57;;
25615;SDS011;13482;48.234;13.006;2024-01-11T06:30:41;32.28;;;16.08;;
25615;SDS011;13482;48.234;13.006;2024-01-11T06:33:10;27.00;;;14.23;;
25615;SDS011;13482;48.234;13.006;2024-01-11T06:35:37;25.73;;;13.70;;
25615;SDS011;13482;48.234;13.006;2024-01-11T06:38:05;26.17;;;13.23;;
25615;SDS011;13482;48.234;13.006;2024-01-11T06:40:33;25.88;;;12.85;;
25615;SDS011;13482;48.234;13.006;2024-01-11T06:43:01;26.73;;;12.25;;
25615;SDS011;13482;48.234;13.006;2024-01-11T06:45:28;20.35;;;11.57;;
25615;SDS011;13482;48.234;13.006;2024-01-11T06:47:56;24.05;;;12.48;;
25615;SDS011;13482;48.234;13.006;2024-01-11T06:50:24;24.65;;;12.25;;
25615;SDS011;13482;48.234;13.006;2024-01-11T06:52:51;23.73;;;12.30;;
25615;SDS011;13482;48.234;13.006;2024-01-11T06:55:18;24.10;;;11.95;;
25615;SDS011;13482;48.234;13.006;2024-01-11T06:57:46;22.17;;;11.70;;
25615;SDS011;13482;48.234;13.006;2024-01-11T07:00:14;25.75;;;12.73;;
25615;SDS011;13482;48.234;13.006;2024-01-11T07:02:42;23.00;;;12.38;;
25615;SDS011;13482;48.234;13.006;2024-01-11T07:05:09;22.15;;;12.63;;
25615;SDS011;13482;48.234;13.006;2024-01-11T07:07:37;26.00;;;13.73;;
25615;SDS011;13482;48.234;13.006;2024-01-11T07:10:05;25.65;;;13.43;;
25615;SDS011;13482;48.234;13.006;2024-01-11T07:12:33;27.48;;;13.88;;
25615;SDS011;13482;48.234;13.006;2024-01-11T07:15:00;27.95;;;13.88;;
25615;SDS011;13482;48.234;13.006;2024-01-11T07:17:28;30.15;;;14.25;;
25615;SDS011;13482;48.234;13.006;2024-01-11T07:19:56;25.83;;;14.48;;
25615;SDS011;13482;48.234;13.006;2024-01-11T07:22:23;24.13;;;13.23;;
25615;SDS011;13482;48.234;13.006;2024-01-11T07:24:51;26.90;;;14.43;;
25615;SDS011;13482;48.234;13.006;2024-01-11T07:27:18;28.83;;;14.13;;
25615;SDS011;13482;48.234;13.006;2024-01-11T07:29:46;25.25;;;13.60;;
25615;SDS011;13482;48.234;13.006;2024-01-11T07:32:14;25.05;;;13.23;;
25615;SDS011;13482;48.234;13.006;2024-01-11T07:34:41;24.45;;;12.98;;
25615;SDS011;13482;48.234;13.006;2024-01-11T07:37:09;23.85;;;13.10;;
25615;SDS011;13482;48.234;13.006;2024-01-11T07:39:36;28.08;;;14.52;;
25615;SDS011;13482;48.234;13.006;2024-01-11T07:42:04;24.73;;;13.95;;
25615;SDS011;13482;48.234;13.006;2024-01-11T07:44:31;21.55;;;12.65;;
25615;SDS011;13482;48.234;13.006;2024-01-11T07:46:59;22.70;;;12.18;;
25615;SDS011;13482;48.234;13.006;2024-01-11T07:49:28;20.98;;;11.60;;
25615;SDS011;13482;48.234;13.006;2024-01-11T07:51:55;23.05;;;13.20;;
25615;SDS011;13482;48.234;13.006;2024-01-11T07:54:23;24.48;;;12.35;;
25615;SDS011;13482;48.234;13.006;2024-01-11T07:56:52;19.88;;;11.93;;
25615;SDS011;13482;48.234;13.006;2024-01-11T07:59:19;21.70;;;12.02;;
25615;SDS011;13482;48.234;13.006;2024-01-11T08:01:47;23.85;;;12.40;;
25615;SDS011;13482;48.234;13.006;2024-01-11T08:04:15;39.90;;;19.67;;
25615;SDS011;13482;48.234;13.006;2024-01-11T08:06:42;29.55;;;14.50;;
25615;SDS011;13482;48.234;13.006;2024-01-11T08:09:10;24.90;;;13.52;;
25615;SDS011;13482;48.234;13.006;2024-01-11T08:11:40;22.77;;;12.18;;
25615;SDS011;13482;48.234;13.006;2024-01-11T08:14:16;22.33;;;11.57;;
25615;SDS011;13482;48.234;13.006;2024-01-11T08:16:44;24.83;;;12.88;;
25615;SDS011;13482;48.234;13.006;2024-01-11T08:19:12;25.02;;;12.13;;
25615;SDS011;13482;48.234;13.006;2024-01-11T08:21:41;19.88;;;11.85;;
25615;SDS011;13482;48.234;13.006;2024-01-11T08:24:09;20.80;;;12.23;;
25615;SDS011;13482;48.234;13.006;2024-01-11T08:26:36;21.85;;;12.40;;
25615;SDS011;13482;48.234;13.006;2024-01-11T08:29:04;22.08;;;12.35;;
25615;SDS011;13482;48.234;13.006;2024-01-11T08:31:33;22.00;;;11.80;;
25615;SDS011;13482;48.234;13.006;2024-01-11T08:34:04;20.60;;;11.18;;
25615;SDS011;13482;48.234;13.006;2024-01-11T08:36:32;22.75;;;11.85;;
25615;SDS011;13482;48.234;13.006;2024-01-11T08:39:02;21.58;;;12.30;;
25615;SDS011;13482;48.234;13.006;2024-01-11T08:41:32;23.15;;;12.35;;
25615;SDS011;13482;48.234;13.006;2024-01-11T08:44:02;23.67;;;12.82;;
25615;SDS011;13482;48.234;13.006;2024-01-11T08:46:29;23.35;;;13.18;;
25615;SDS011;13482;48.234;13.006;2024-01-11T08:48:57;26.13;;;13.75;;
25615;SDS011;13482;48.234;13.006;2024-01-11T08:51:25;25.33;;;12.48;;
25615;SDS011;13482;48.234;13.006;2024-01-11T08:53:53;22.50;;;12.55;;
25615;SDS011;13482;48.234;13.006;2024-01-11T08:56:21;23.10;;;12.68;;
25615;SDS011;13482;48.234;13.006;2024-01-11T08:58:49;20.98;;;12.10;;
25615;SDS011;13482;48.234;13.006;2024-01-11T09:01:17;23.13;;;12.95;;
25615;SDS011;13482;48.234;13.006;2024-01-11T09:03:44;20.35;;;11.85;;
25615;SDS011;13482;48.234;13.006;2024-01-11T09:06:14;21.40;;;12.02;;
25615;SDS011;13482;48.234;13.006;2024-01-11T09:08:42;23.35;;;12.57;;
25615;SDS011;13482;48.234;13.006;2024-01-11T09:11:10;21.25;;;11.25;;
25615;SDS011;13482;48.234;13.006;2024-01-11T09:13:38;21.20;;;11.25;;
25615;SDS011;13482;48.234;13.006;2024-01-11T09:16:07;28.90;;;13.38;;
25615;SDS011;13482;48.234;13.006;2024-01-11T09:18:36;20.35;;;12.35;;
25615;SDS011;13482;48.234;13.006;2024-01-11T09:21:05;23.88;;;13.00;;
25615;SDS011;13482;48.234;13.006;2024-01-11T09:23:32;24.05;;;12.95;;
25615;SDS011;13482;48.234;13.006;2024-01-11T09:26:01;26.77;;;13.77;;
25615;SDS011;13482;48.234;13.006;2024-01-11T09:28:29;27.15;;;14.82;;
25615;SDS011;13482;48.234;13.006;2024-01-11T09:30:57;27.77;;;15.00;;
25615;SDS011;13482;48.234;13.006;2024-01-11T09:33:27;23.50;;;12.93;;
25615;SDS011;13482;48.234;13.006;2024-01-11T09:35:55;24.73;;;13.52;;
25615;SDS011;13482;48.234;13.006;2024-01-11T09:38:23;21.70;;;12.88;;
25615;SDS011;13482;48.234;13.006;2024-01-11T09:40:53;24.20;;;13.50;;
25615;SDS011;13482;48.234;13.006;2024-01-11T09:43:37;23.48;;;12.55;;
25615;SDS011;13482;48.234;13.006;2024-01-11T09:46:07;23.45;;;12.55;;
25615;SDS011;13482;48.234;13.006;2024-01-11T09:48:38;20.50;;;11.43;;
25615;SDS011;13482;48.234;13.006;2024-01-11T09:51:08;23.05;;;12.60;;
25615;SDS011;13482;48.234;13.006;2024-01-11T09:53:40;25.33;;;13.60;;
25615;SDS011;13482;48.234;13.006;2024-01-11T09:56:10;21.85;;;12.30;;
25615;SDS011;13482;48.234;13.006;2024-01-11T09:58:39;21.67;;;12.45;;
25615;SDS011;13482;48.234;13.006;2024-01-11T10:01:15;21.27;;;11.77;;
25615;SDS011;13482;48.234;13.006;2024-01-11T10:03:43;24.60;;;12.77;;
25615;SDS011;13482;48.234;13.006;2024-01-11T10:06:14;23.98;;;12.18;;
25615;SDS011;13482;48.234;13.006;2024-01-11T10:08:45;22.98;;;12.73;;
25615;SDS011;13482;48.234;13.006;2024-01-11T10:11:13;24.42;;;13.40;;
25615;SDS011;13482;48.234;13.006;2024-01-11T10:13:40;25.38;;;13.48;;
25615;SDS011;13482;48.234;13.006;2024-01-11T10:16:11;26.35;;;13.63;;
25615;SDS011;13482;48.234;13.006;2024-01-11T10:18:42;27.35;;;14.25;;
25615;SDS011;13482;48.234;13.006;2024-01-11T10:21:10;23.95;;;12.75;;
25615;SDS011;13482;48.234;13.006;2024-01-11T10:23:38;22.95;;;12.27;;
25615;SDS011;13482;48.234;13.006;2024-01-11T10:26:06;24.15;;;12.88;;
25615;SDS011;13482;48.234;13.006;2024-01-11T10:28:36;25.02;;;12.93;;
25615;SDS011;13482;48.234;13.006;2024-01-11T10:31:04;24.80;;;13.25;;
25615;SDS011;13482;48.234;13.006;2024-01-11T10:33:34;22.30;;;12.73;;
25615;SDS011;13482;48.234;13.006;2024-01-11T10:36:02;26.05;;;13.48;;
25615;SDS011;13482;48.234;13.006;2024-01-11T10:38:31;24.90;;;12.55;;
25615;SDS011;13482;48.234;13.006;2024-01-11T10:41:05;23.15;;;12.45;;
25615;SDS011;13482;48.234;13.006;2024-01-11T10:43:36;22.77;;;12.65;;
25615;SDS011;13482;48.234;13.006;2024-01-11T10:46:05;21.38;;;12.25;;
25615;SDS011;13482;48.234;13.006;2024-01-11T10:48:37;24.05;;;12.60;;
25615;SDS011;13482;48.234;13.006;2024-01-11T10:51:08;24.40;;;12.32;;
25615;SDS011;13482;48.234;13.006;2024-01-11T10:53:43;23.90;;;11.60;;
25615;SDS011;13482;48.234;13.006;2024-01-11T10:56:15;24.02;;;12.27;;
25615;SDS011;13482;48.234;13.006;2024-01-11T10:58:43;24.02;;;12.55;;
25615;SDS011;13482;48.234;13.006;2024-01-11T11:01:13;22.15;;;11.88;;
25615;SDS011;13482;48.234;13.006;2024-01-11T11:03:41;21.98;;;12.63;;
25615;SDS011;13482;48.234;13.006;2024-01-11T11:06:11;26.58;;;13.85;;
25615;SDS011;13482;48.234;13.006;2024-01-11T11:08:40;22.80;;;12.85;;
25615;SDS011;13482;48.234;13.006;2024-01-11T11:11:09;25.20;;;13.38;;
25615;SDS011;13482;48.234;13.006;2024-01-11T11:13:38;22.25;;;12.35;;
25615;SDS011;13482;48.234;13.006;2024-01-11T11:16:07;25.77;;;14.38;;
25615;SDS011;13482;48.234;13.006;2024-01-11T11:18:35;23.15;;;14.50;;
25615;SDS011;13482;48.234;13.006;2024-01-11T11:21:11;23.38;;;12.75;;
25615;SDS011;13482;48.234;13.006;2024-01-11T11:23:38;27.10;;;13.52;;
25615;SDS011;13482;48.234;13.006;2024-01-11T11:26:06;24.95;;;13.63;;
25615;SDS011;13482;48.234;13.006;2024-01-11T11:28:41;28.35;;;15.50;;
25615;SDS011;13482;48.234;13.006;2024-01-11T11:31:10;26.08;;;14.90;;
25615;SDS011;13482;48.234;13.006;2024-01-11T11:33:40;28.65;;;14.63;;
25615;SDS011;13482;48.234;13.006;2024-01-11T11:36:12;26.80;;;14.68;;
25615;SDS011;13482;48.234;13.006;2024-01-11T11:38:43;28.77;;;15.27;;
25615;SDS011;13482;48.234;13.006;2024-01-11T11:41:10;29.10;;;15.50;;
25615;SDS011;13482;48.234;13.006;2024-01-11T11:43:40;25.95;;;15.45;;
25615;SDS011;13482;48.234;13.006;2024-01-11T11:46:07;30.05;;;15.82;;
25615;SDS011;13482;48.234;13.006;2024-01-11T11:51:21;25.70;;;14.27;;
25615;SDS011;13482;48.234;13.006;2024-01-11T11:53:55;26.52;;;13.57;;
25615;SDS011;13482;48.234;13.006;2024-01-11T11:56:24;28.55;;;13.77;;
25615;SDS011;13482;48.234;13.006;2024-01-11T11:58:52;28.33;;;15.82;;
25615;SDS011;13482;48.234;13.006;2024-01-11T12:01:22;26.17;;;14.85;;
25615;SDS011;13482;48.234;13.006;2024-01-11T12:03:50;26.63;;;14.25;;
25615;SDS011;13482;48.234;13.006;2024-01-11T12:06:20;32.05;;;15.70;;
25615;SDS011;13482;48.234;13.006;2024-01-11T12:08:52;32.20;;;16.30;;
25615;SDS011;13482;48.234;13.006;2024-01-11T12:11:23;27.80;;;15.35;;
25615;SDS011;13482;48.234;13.006;2024-01-11T12:13:52;29.95;;;14.85;;
25615;SDS011;13482;48.234;13.006;2024-01-11T12:16:22;29.95;;;15.40;;
25615;SDS011;13482;48.234;13.006;2024-01-11T12:18:50;32.72;;;16.52;;
25615;SDS011;13482;48.234;13.006;2024-01-11T12:21:19;29.98;;;15.90;;
25615;SDS011;13482;48.234;13.006;2024-01-11T12:23:47;28.50;;;16.10;;
25615;SDS011;13482;48.234;13.006;2024-01-11T12:26:16;30.02;;;15.63;;
25615;SDS011;13482;48.234;13.006;2024-01-11T12:28:51;31.35;;;16.88;;
25615;SDS011;13482;48.234;13.006;2024-01-11T12:31:20;29.27;;;16.40;;
25615;SDS011;13482;48.234;13.006;2024-01-11T12:33:49;30.52;;;16.33;;
25615;SDS011;13482;48.234;13.006;2024-01-11T12:36:18;31.35;;;16.98;;
25615;SDS011;13482;48.234;13.006;2024-01-11T12:38:47;29.33;;;16.88;;
25615;SDS011;13482;48.234;13.006;2024-01-11T12:41:19;30.52;;;16.55;;
25615;SDS011;13482;48.234;13.006;2024-01-11T12:43:50;30.95;;;16.40;;
25615;SDS011;13482;48.234;13.006;2024-01-11T12:46:19;31.60;;;16.42;;
25615;SDS011;13482;48.234;13.006;2024-01-11T12:48:47;30.42;;;15.68;;
25615;SDS011;13482;48.234;13.006;2024-01-11T12:51:17;30.13;;;16.50;;
25615;SDS011;13482;48.234;13.006;2024-01-11T12:53:48;27.45;;;15.88;;
25615;SDS011;13482;48.234;13.006;2024-01-11T12:56:18;31.13;;;16.77;;
25615;SDS011;13482;48.234;13.006;2024-01-11T12:58:49;30.38;;;15.43;;
25615;SDS011;13482;48.234;13.006;2024-01-11T13:01:17;28.30;;;15.23;;
25615;SDS011;13482;48.234;13.006;2024-01-11T13:03:45;30.90;;;16.35;;
25615;SDS011;13482;48.234;13.006;2024-01-11T13:06:14;31.67;;;16.65;;
25615;SDS011;13482;48.234;13.006;2024-01-11T13:08:44;32.92;;;17.15;;
25615;SDS011;13482;48.234;13.006;2024-01-11T13:11:12;29.00;;;15.70;;
25615;SDS011;13482;48.234;13.006;2024-01-11T13:13:44;28.08;;;16.35;;
25615;SDS011;13482;48.234;13.006;2024-01-11T13:16:14;32.63;;;17.65;;
25615;SDS011;13482;48.234;13.006;2024-01-11T13:18:42;29.13;;;15.82;;
25615;SDS011;13482;48.234;13.006;2024-01-11T13:21:10;29.73;;;15.48;;
25615;SDS011;13482;48.234;13.006;2024-01-11T13:23:41;24.55;;;14.57;;
25615;SDS011;13482;48.234;13.006;2024-01-11T13:26:09;28.15;;;14.70;;
25615;SDS011;13482;48.234;13.006;2024-01-11T13:28:38;27.90;;;14.88;;
25615;SDS011;13482;48.234;13.006;2024-01-11T13:31:08;27.00;;;14.73;;
25615;SDS011;13482;48.234;13.006;2024-01-11T13:33:37;29.58;;;16.25;;
25615;SDS011;13482;48.234;13.006;2024-01-11T13:36:06;30.75;;;16.10;;
25615;SDS011;13482;48.234;13.006;2024-01-11T13:38:34;28.33;;;16.40;;
25615;SDS011;13482;48.234;13.006;2024-01-11T13:41:02;32.50;;;17.42;;
25615;SDS011;13482;48.234;13.006;2024-01-11T13:43:31;34.17;;;18.13;;
25615;SDS011;13482;48.234;13.006;2024-01-11T13:45:59;30.65;;;15.38;;
25615;SDS011;13482;48.234;13.006;2024-01-11T13:48:27;27.77;;;15.55;;
25615;SDS011;13482;48.234;13.006;2024-01-11T13:50:55;33.42;;;17.58;;
25615;SDS011;13482;48.234;13.006;2024-01-11T13:53:23;30.65;;;16.77;;
25615;SDS011;13482;48.234;13.006;2024-01-11T13:55:50;29.80;;;15.80;;
25615;SDS011;13482;48.234;13.006;2024-01-11T13:58:19;27.73;;;14.95;;
25615;SDS011;13482;48.234;13.006;2024-01-11T14:00:46;32.50;;;16.77;;
25615;SDS011;13482;48.234;13.006;2024-01-11T14:03:14;27.27;;;15.77;;
25615;SDS011;13482;48.234;13.006;2024-01-11T14:05:42;33.22;;;17.33;;
25615;SDS011;13482;48.234;13.006;2024-01-11T14:08:10;35.50;;;18.80;;
25615;SDS011;13482;48.234;13.006;2024-01-11T14:10:38;33.70;;;17.70;;
25615;SDS011;13482;48.234;13.006;2024-01-11T14:13:06;31.88;;;18.00;;
25615;SDS011;13482;48.234;13.006;2024-01-11T14:15:33;30.48;;;15.82;;
25615;SDS011;13482;48.234;13.006;2024-01-11T14:18:01;30.90;;;15.77;;
25615;SDS011;13482;48.234;13.006;2024-01-11T14:20:30;28.10;;;14.90;;
25615;SDS011;13482;48.234;13.006;2024-01-11T14:23:00;29.35;;;15.48;;